Time;durP1;ratioP1;P1;durP2;ratioP2;P2;SDS_P1;SDS_P2;PMS_P1;PMS_P2;Temp;Humidity;BMP_temperature;BMP_pressure;BME280_temperature;BME280_humidity;BME280_pressure;Samples;Min_cycle;Max_cycle;Signal;HPM_P1;HPM_P2
2023/09/05 00:00:26;;;;;;;17.37;5.70;;;;;;;17.52;100.00;100610.84;4999118;28;20280;-57
2023/09/05 00:02:58;;;;;;;14.13;5.10;;;;;;;17.44;100.00;100602.38;5026981;28;20275;-57
2023/09/05 00:05:32;;;;;;;10.70;5.30;;;;;;;17.15;100.00;100570.06;5018450;28;20283;-58
2023/09/05 00:08:02;;;;;;;15.03;5.00;;;;;;;17.38;100.00;100607.91;5018229;28;20371;-58
2023/09/05 00:10:33;;;;;;;10.57;4.80;;;;;;;17.46;100.00;100595.25;5027425;28;20290;-57
2023/09/05 00:13:05;;;;;;;6.57;4.20;;;;;;;17.28;100.00;100559.03;5003197;28;20311;-58
2023/09/05 00:15:36;;;;;;;8.03;3.73;;;;;;;17.55;100.00;100600.19;5023274;28;20383;-57
2023/09/05 00:18:08;;;;;;;9.83;5.17;;;;;;;17.60;100.00;100600.88;5018156;28;20317;-56
2023/09/05 00:20:39;;;;;;;8.53;4.47;;;;;;;17.56;100.00;100601.91;5024025;28;20306;-57
2023/09/05 00:23:09;;;;;;;9.90;4.37;;;;;;;17.62;100.00;100606.97;5006787;28;20279;-57
2023/09/05 00:25:40;;;;;;;8.50;4.43;;;;;;;17.42;100.00;100561.94;5025944;28;20287;-56
2023/09/05 00:28:10;;;;;;;8.03;4.60;;;;;;;17.63;100.00;100598.09;5018143;28;20299;-56
2023/09/05 00:30:41;;;;;;;12.33;4.23;;;;;;;17.57;100.00;100587.78;5026828;28;20722;-59
2023/09/05 00:33:13;;;;;;;10.10;3.70;;;;;;;17.57;100.00;100595.72;5018002;28;21028;-57
2023/09/05 00:35:43;;;;;;;11.07;4.53;;;;;;;17.60;100.00;100598.22;5027999;28;20279;-57
2023/09/05 00:38:14;;;;;;;8.77;3.70;;;;;;;17.61;100.00;100593.78;5018419;28;20329;-56
2023/09/05 00:40:45;;;;;;;4.00;2.93;;;;;;;17.62;100.00;100587.56;5019925;28;20279;-58
2023/09/05 00:43:15;;;;;;;4.97;2.80;;;;;;;17.64;100.00;100589.22;5003422;28;20327;-58
2023/09/05 00:45:49;;;;;;;7.37;3.50;;;;;;;17.73;100.00;100581.88;5020089;28;20297;-57
2023/09/05 00:48:23;;;;;;;6.63;3.13;;;;;;;17.74;100.00;100578.28;5017919;28;20285;-58
2023/09/05 00:50:56;;;;;;;8.73;2.77;;;;;;;17.68;100.00;100574.97;5027662;28;20379;-58
2023/09/05 00:53:27;;;;;;;4.27;2.53;;;;;;;17.62;100.00;100564.69;5014399;28;20652;-58
2023/09/05 00:55:57;;;;;;;9.97;2.60;;;;;;;17.72;100.00;100574.84;5022717;28;20290;-59
2023/09/05 00:58:29;;;;;;;5.53;2.67;;;;;;;17.72;100.00;100561.63;4992875;28;20593;-58
2023/09/05 01:00:59;;;;;;;4.30;2.50;;;;;;;17.74;100.00;100568.56;5009670;28;20802;-58
2023/09/05 01:03:34;;;;;;;7.67;2.93;;;;;;;17.78;100.00;100569.31;5021881;28;20319;-58
2023/09/05 01:06:13;;;;;;;5.07;2.63;;;;;;;17.39;100.00;100498.69;5010259;28;20318;-58
2023/09/05 01:09:03;;;;;;;5.10;2.73;;;;;;;17.89;100.00;100567.13;5022782;28;20746;-58
2023/09/05 01:11:46;;;;;;;8.53;2.90;;;;;;;17.92;100.00;100556.41;5012949;28;20283;-58
2023/09/05 01:14:33;;;;;;;6.63;3.03;;;;;;;17.95;100.00;100556.31;4992204;28;20368;-59
2023/09/05 01:17:11;;;;;;;6.57;2.80;;;;;;;18.02;100.00;100557.75;4993718;28;20287;-59
2023/09/05 01:19:58;;;;;;;6.07;2.77;;;;;;;18.04;100.00;100555.03;5022372;28;20055;-59
2023/09/05 01:22:42;;;;;;;5.73;3.03;;;;;;;18.08;100.00;100544.25;4992890;28;20387;-58
2023/09/05 01:25:28;;;;;;;5.70;2.93;;;;;;;18.10;100.00;100539.78;4992059;28;20303;-59
2023/09/05 01:28:00;;;;;;;7.20;2.90;;;;;;;18.04;100.00;100531.22;4994191;28;20378;-60
2023/09/05 01:30:30;;;;;;;4.87;2.90;;;;;;;18.16;100.00;100543.06;5015175;28;20303;-59
2023/09/05 01:33:01;;;;;;;8.83;3.17;;;;;;;18.19;100.00;100540.28;5013837;28;20386;-58
2023/09/05 01:35:31;;;;;;;8.17;3.00;;;;;;;18.29;100.00;100538.97;5022441;28;20279;-58
2023/09/05 01:38:02;;;;;;;5.60;3.10;;;;;;;18.31;100.00;100535.31;5012414;28;20748;-59
2023/09/05 01:40:34;;;;;;;8.50;3.07;;;;;;;18.36;100.00;100529.84;5021915;28;20268;-59
2023/09/05 01:43:05;;;;;;;5.27;2.77;;;;;;;18.38;100.00;100522.69;5012389;28;20378;-59
2023/09/05 01:45:35;;;;;;;7.50;2.90;;;;;;;18.44;100.00;100527.69;5022902;28;20284;-59
2023/09/05 01:48:08;;;;;;;4.83;3.10;;;;;;;18.39;100.00;100515.59;5013420;28;20294;-59
2023/09/05 01:50:38;;;;;;;7.27;3.03;;;;;;;18.39;100.00;100519.09;5023099;28;20287;-59
2023/09/05 01:53:09;;;;;;;5.87;2.83;;;;;;;18.45;100.00;100523.28;5012622;28;20377;-57
2023/09/05 01:55:41;;;;;;;5.33;3.40;;;;;;;18.39;100.00;100508.53;5022447;28;20603;-59
2023/09/05 01:58:11;;;;;;;6.87;3.20;;;;;;;18.43;100.00;100512.75;5012191;28;20373;-58
2023/09/05 02:00:42;;;;;;;6.17;2.87;;;;;;;18.41;100.00;100506.66;5022435;28;20746;-58
2023/09/05 02:03:13;;;;;;;9.03;3.37;;;;;;;18.35;100.00;100512.25;5013177;28;20288;-58
2023/09/05 02:05:43;;;;;;;4.33;3.23;;;;;;;17.99;100.00;100425.66;5022985;28;20291;-57
2023/09/05 02:08:14;;;;;;;7.07;3.20;;;;;;;18.33;100.00;100477.06;5012675;28;20588;-59
2023/09/05 02:10:47;;;;;;;5.60;3.23;;;;;;;18.43;100.00;100478.38;5022495;28;20294;-58
2023/09/05 02:13:18;;;;;;;7.23;3.33;;;;;;;18.70;100.00;100497.41;5009839;28;20419;-59
2023/09/05 02:15:48;;;;;;;5.63;3.40;;;;;;;18.84;100.00;100488.84;5002652;28;20280;-60
2023/09/05 02:18:19;;;;;;;4.47;2.77;;;;;;;18.92;100.00;100486.72;4993613;28;20280;-59
2023/09/05 02:20:49;;;;;;;7.50;3.30;;;;;;;19.04;100.00;100484.41;5022249;28;20284;-59
2023/09/05 02:23:20;;;;;;;6.20;2.90;;;;;;;19.02;100.00;100478.31;5010251;28;20266;-59
2023/09/05 02:25:59;;;;;;;13.07;3.63;;;;;;;18.96;100.00;100471.53;5021702;28;20279;-59
2023/09/05 02:28:29;;;;;;;;;;;;;;;18.92;100.00;100470.81;5011861;28;20298;-58
2023/09/05 02:31:00;;;;;;;9.10;3.90;;;;;;;18.86;100.00;100471.09;5012022;28;19929;-59
2023/09/05 02:33:33;;;;;;;6.97;3.50;;;;;;;18.89;100.00;100470.09;5021252;28;20288;-59
2023/09/05 02:36:15;;;;;;;7.40;3.63;;;;;;;19.02;100.00;100451.81;5012214;28;20386;-59
2023/09/05 02:38:46;;;;;;;5.40;2.90;;;;;;;19.10;100.00;100431.16;5008595;28;20284;-59
2023/09/05 02:41:18;;;;;;;7.17;3.70;;;;;;;19.52;100.00;100477.63;5011831;28;20306;-59
2023/09/05 02:43:49;;;;;;;7.03;3.90;;;;;;;19.68;100.00;100460.06;5021971;28;20309;-59
2023/09/05 02:46:21;;;;;;;7.60;3.80;;;;;;;19.75;100.00;100466.75;5011005;28;20288;-59
2023/09/05 02:48:51;;;;;;;8.83;3.97;;;;;;;19.64;100.00;100453.16;5021484;28;20271;-58
2023/09/05 02:51:22;;;;;;;8.53;4.00;;;;;;;19.56;100.00;100452.69;5011374;28;20315;-58
2023/09/05 02:53:56;;;;;;;7.90;4.00;;;;;;;19.55;100.00;100448.34;5022216;28;20722;-58
2023/09/05 02:56:28;;;;;;;7.33;3.50;;;;;;;19.60;100.00;100451.59;4990960;28;20284;-58
2023/09/05 02:59:01;;;;;;;6.20;3.80;;;;;;;19.69;100.00;100440.53;4996738;28;20303;-58
2023/09/05 03:01:32;;;;;;;8.67;3.83;;;;;;;19.78;100.00;100450.69;5001139;28;20843;-58
2023/09/05 03:04:03;;;;;;;6.70;4.13;;;;;;;19.92;100.00;100446.44;4991644;28;20614;-58
2023/09/05 03:06:33;;;;;;;7.43;3.80;;;;;;;20.20;100.00;100449.38;5015059;28;20826;-59
2023/09/05 03:09:04;;;;;;;7.60;3.40;;;;;;;20.42;100.00;100440.25;5011940;28;20310;-59
2023/09/05 03:11:36;;;;;;;7.37;3.57;;;;;;;20.45;100.00;100424.16;5020550;28;20362;-57
2023/09/05 03:14:07;;;;;;;6.97;3.87;;;;;;;20.68;100.00;100431.72;5011401;28;20275;-59
2023/09/05 03:16:37;;;;;;;6.23;3.80;;;;;;;20.75;99.90;100428.75;5004005;28;20284;-58
2023/09/05 03:19:11;;;;;;;6.63;3.47;;;;;;;20.77;98.25;100433.03;4991161;28;20291;-58
2023/09/05 03:21:42;;;;;;;4.87;3.67;;;;;;;20.60;97.78;100402.09;5015709;28;20287;-59
2023/09/05 03:24:15;;;;;;;5.57;3.70;;;;;;;20.80;96.79;100424.03;5012197;28;20643;-59
2023/09/05 03:26:47;;;;;;;6.47;3.90;;;;;;;20.78;97.36;100431.22;5006835;28;20286;-57
2023/09/05 03:29:17;;;;;;;5.57;3.63;;;;;;;20.55;96.49;100398.84;4991530;28;20390;-59
2023/09/05 03:31:48;;;;;;;6.13;3.57;;;;;;;20.84;96.85;100413.16;5001074;28;20318;-58
2023/09/05 03:34:18;;;;;;;7.30;4.00;;;;;;;20.92;95.58;100407.41;4990944;28;20331;-59
2023/09/05 03:36:50;;;;;;;6.43;3.83;;;;;;;20.98;93.33;100407.03;5001222;28;20430;-58
2023/09/05 03:39:20;;;;;;;7.73;4.00;;;;;;;21.24;92.27;100397.56;4991573;28;20280;-59
2023/09/05 03:41:52;;;;;;;7.13;3.90;;;;;;;21.37;90.67;100403.03;5000506;28;20276;-58
2023/09/05 03:44:23;;;;;;;12.27;3.83;;;;;;;21.38;91.17;100394.09;5009590;28;20282;-58
2023/09/05 03:46:53;;;;;;;7.23;4.10;;;;;;;21.57;92.88;100398.31;5021967;28;20275;-59
2023/09/05 03:49:24;;;;;;;5.77;3.70;;;;;;;21.56;92.06;100391.31;5013723;28;20294;-59
2023/09/05 03:51:57;;;;;;;5.60;3.30;;;;;;;21.54;90.35;100389.63;5028373;28;20064;-60
2023/09/05 03:54:27;;;;;;;5.70;3.30;;;;;;;21.54;88.81;100386.97;5009565;28;20277;-58
2023/09/05 03:56:59;;;;;;;7.17;4.10;;;;;;;21.38;90.43;100372.81;5019231;28;20276;-59
2023/09/05 03:59:30;;;;;;;6.93;3.90;;;;;;;21.37;90.68;100376.44;5007617;28;20279;-58
2023/09/05 04:02:00;;;;;;;5.53;3.60;;;;;;;21.21;90.71;100349.06;5010308;28;20084;-59
2023/09/05 04:04:31;;;;;;;7.17;3.83;;;;;;;21.32;90.07;100383.84;5022944;28;20339;-58
2023/09/05 04:07:01;;;;;;;7.50;4.10;;;;;;;21.39;89.51;100369.28;5014633;28;20287;-57
2023/09/05 04:09:32;;;;;;;6.40;3.93;;;;;;;21.36;89.68;100369.41;5024919;28;20722;-60
2023/09/05 04:12:04;;;;;;;4.17;3.53;;;;;;;21.35;89.79;100373.00;5014666;28;20299;-59
2023/09/05 04:14:34;;;;;;;5.10;3.30;;;;;;;21.34;90.37;100371.28;5024133;28;20068;-59
2023/09/05 04:17:05;;;;;;;4.70;3.57;;;;;;;21.37;90.01;100371.13;5014207;28;20311;-58
2023/09/05 04:19:35;;;;;;;7.50;3.97;;;;;;;21.25;90.51;100366.53;5023017;28;20627;-58
2023/09/05 04:22:06;;;;;;;9.57;4.00;;;;;;;21.29;91.78;100360.06;5004899;28;20290;-58
2023/09/05 04:24:36;;;;;;;6.37;4.00;;;;;;;21.32;90.44;100351.94;5008623;28;20287;-59
2023/09/05 04:27:09;;;;;;;6.57;4.23;;;;;;;21.21;91.13;100330.44;5014781;28;20743;-59
2023/09/05 04:29:39;;;;;;;4.97;3.77;;;;;;;21.41;90.79;100346.09;5024043;28;20778;-59
2023/09/05 04:32:10;;;;;;;5.70;3.70;;;;;;;21.53;90.85;100342.69;5014338;28;20323;-59
2023/09/05 04:34:40;;;;;;;6.13;3.87;;;;;;;21.47;89.65;100340.41;5010055;28;20388;-58
2023/09/05 04:37:11;;;;;;;9.43;4.10;;;;;;;21.58;91.38;100341.56;4994297;28;20044;-58
2023/09/05 04:39:41;;;;;;;5.03;3.73;;;;;;;21.73;89.09;100338.81;5004144;28;20276;-59
2023/09/05 04:42:13;;;;;;;5.27;3.50;;;;;;;21.81;87.66;100333.00;4995401;28;20292;-59
2023/09/05 04:44:44;;;;;;;6.80;3.90;;;;;;;21.83;87.45;100336.44;5003970;28;20551;-59
2023/09/05 04:47:24;;;;;;;9.47;3.80;;;;;;;21.71;87.94;100326.56;4994867;28;20315;-58
2023/09/05 04:49:55;;;;;;;10.63;4.13;;;;;;;21.45;86.79;100294.47;5003992;28;20060;-59
2023/09/05 04:52:28;;;;;;;5.00;3.47;;;;;;;21.69;86.94;100323.13;5001567;28;20148;-59
2023/09/05 04:54:59;;;;;;;8.53;4.03;;;;;;;21.72;87.02;100312.34;5003794;28;20041;-59
2023/09/05 04:57:31;;;;;;;7.27;3.77;;;;;;;21.85;89.15;100317.75;5013171;28;20860;-58
2023/09/05 05:00:02;;;;;;;5.27;3.40;;;;;;;21.91;87.23;100312.88;4997367;28;20353;-59
2023/09/05 05:02:34;;;;;;;7.47;3.47;;;;;;;21.93;88.04;100318.09;5004463;28;20084;-58
2023/09/05 05:05:05;;;;;;;6.40;3.30;;;;;;;21.93;87.57;100315.44;4993909;28;20292;-58
2023/09/05 05:07:36;;;;;;;5.70;3.80;;;;;;;21.81;85.79;100311.72;5003973;28;20049;-60
2023/09/05 05:10:07;;;;;;;9.13;3.37;;;;;;;21.66;87.05;100299.41;4994046;28;20045;-58
2023/09/05 05:12:40;;;;;;;7.30;4.10;;;;;;;21.63;87.73;100307.56;5003710;28;20363;-59
2023/09/05 05:15:11;;;;;;;8.30;3.70;;;;;;;21.71;88.06;100300.81;4993993;28;20287;-59
2023/09/05 05:17:41;;;;;;;6.73;4.10;;;;;;;21.70;86.19;100298.28;5003716;28;20077;-58
2023/09/05 05:20:13;;;;;;;7.00;3.97;;;;;;;21.83;85.68;100304.53;4994120;28;20037;-58
2023/09/05 05:22:44;;;;;;;7.40;3.20;;;;;;;21.87;86.01;100295.41;5003362;28;20472;-59
2023/09/05 05:25:15;;;;;;;5.80;3.20;;;;;;;21.85;85.00;100291.97;4991928;28;20425;-59
2023/09/05 05:27:47;;;;;;;7.27;3.40;;;;;;;21.73;86.75;100276.78;5002790;28;20433;-58
2023/09/05 05:30:17;;;;;;;8.70;3.97;;;;;;;21.83;86.39;100288.56;4993239;28;20053;-58
2023/09/05 05:32:49;;;;;;;4.63;3.60;;;;;;;21.97;87.72;100291.22;5009813;28;20148;-58
2023/09/05 05:35:19;;;;;;;6.43;3.70;;;;;;;21.93;86.98;100284.38;5012453;28;20470;-58
2023/09/05 05:37:50;;;;;;;8.43;3.70;;;;;;;21.90;87.63;100283.72;5022499;28;20135;-58
2023/09/05 05:40:21;;;;;;;5.90;3.80;;;;;;;21.93;86.19;100286.19;5012405;28;20064;-59
2023/09/05 05:42:53;;;;;;;6.07;3.17;;;;;;;21.96;86.84;100289.47;5022193;28;20053;-58
2023/09/05 05:45:23;;;;;;;5.93;3.30;;;;;;;21.87;85.80;100262.66;5012000;28;20583;-59
2023/09/05 05:47:55;;;;;;;5.97;3.50;;;;;;;21.97;85.93;100277.91;5023583;28;20076;-59
2023/09/05 05:50:26;;;;;;;7.17;3.50;;;;;;;21.95;85.66;100271.81;5011772;28;20615;-59
2023/09/05 05:52:57;;;;;;;8.20;3.13;;;;;;;22.01;85.73;100280.38;5022469;28;20064;-59
2023/09/05 05:55:27;;;;;;;7.73;3.07;;;;;;;22.10;86.75;100269.16;4999898;28;20123;-59
2023/09/05 05:58:02;;;;;;;4.50;3.10;;;;;;;21.98;84.77;100260.97;4992712;28;20053;-58
2023/09/05 06:00:35;;;;;;;6.80;3.13;;;;;;;21.86;85.37;100267.09;5015592;28;20359;-58
2023/09/05 06:03:11;;;;;;;4.93;3.23;;;;;;;21.96;84.96;100257.56;5011690;28;20061;-58
2023/09/05 06:05:41;;;;;;;10.03;3.40;;;;;;;21.80;85.47;100230.25;5021301;28;20597;-58
2023/09/05 06:08:12;;;;;;;7.23;3.43;;;;;;;21.92;85.50;100253.41;5011787;28;20474;-57
2023/09/05 06:10:43;;;;;;;5.47;3.83;;;;;;;21.80;85.94;100264.81;5022067;28;20049;-58
2023/09/05 06:13:15;;;;;;;8.17;3.97;;;;;;;21.85;87.60;100252.09;5012056;28;20053;-58
2023/09/05 06:15:46;;;;;;;6.30;3.50;;;;;;;21.92;87.23;100248.09;5022219;28;20107;-58
2023/09/05 06:18:17;;;;;;;5.60;3.23;;;;;;;21.79;86.51;100233.88;5012356;28;20463;-58
2023/09/05 06:20:47;;;;;;;5.57;3.20;;;;;;;21.85;85.29;100246.75;5021756;28;20728;-59
2023/09/05 06:23:18;;;;;;;4.50;3.33;;;;;;;21.59;86.84;100212.97;5011457;28;20057;-57
2023/09/05 06:25:49;;;;;;;4.43;3.37;;;;;;;21.79;86.12;100249.84;5020972;28;20157;-58
2023/09/05 06:28:21;;;;;;;4.93;3.23;;;;;;;21.71;86.50;100241.47;5009027;28;20129;-58
2023/09/05 06:30:51;;;;;;;8.17;3.40;;;;;;;21.75;87.30;100241.19;5021406;28;20459;-58
2023/09/05 06:33:22;;;;;;;6.73;3.33;;;;;;;21.76;86.46;100239.34;5011722;28;20039;-59
2023/09/05 06:35:52;;;;;;;6.93;3.33;;;;;;;21.75;87.11;100237.66;5004196;28;20387;-59
2023/09/05 06:38:23;;;;;;;8.70;3.87;;;;;;;21.73;87.47;100239.56;5011179;28;20051;-58
2023/09/05 06:40:54;;;;;;;10.30;3.80;;;;;;;21.69;87.22;100235.38;5021336;28;20080;-58
2023/09/05 06:43:27;;;;;;;6.73;3.73;;;;;;;21.66;87.34;100231.09;5010857;28;20057;-59
2023/09/05 06:46:03;;;;;;;5.43;3.20;;;;;;;21.73;87.61;100231.59;5020675;28;20076;-58
2023/09/05 06:48:33;;;;;;;4.93;3.20;;;;;;;21.74;87.07;100235.94;5020662;28;20379;-59
2023/09/05 06:51:06;;;;;;;11.20;3.50;;;;;;;21.71;86.28;100237.00;5011847;28;20053;-58
2023/09/05 06:53:37;;;;;;;8.70;3.67;;;;;;;21.68;86.69;100225.72;5021147;28;20906;-58
2023/09/05 06:56:07;;;;;;;9.33;3.93;;;;;;;21.67;86.45;100234.66;5011198;28;20128;-59
2023/09/05 06:58:40;;;;;;;8.63;3.50;;;;;;;21.71;87.00;100215.72;5021505;28;20160;-58
2023/09/05 07:01:10;;;;;;;6.70;3.40;;;;;;;21.72;87.10;100233.41;5011462;28;20059;-59
2023/09/05 07:03:44;;;;;;;8.17;3.60;;;;;;;21.72;88.14;100232.56;5021653;28;21132;-59
2023/09/05 07:06:18;;;;;;;38.03;23.57;;;;;;;21.72;88.24;100233.41;5002294;28;20101;-60
2023/09/05 07:08:49;;;;;;;10.27;3.50;;;;;;;21.65;88.95;100228.56;5020841;28;20052;-60
2023/09/05 07:11:19;;;;;;;9.77;3.70;;;;;;;21.68;88.53;100228.38;5010496;28;20057;-59
2023/09/05 07:13:51;;;;;;;7.97;3.70;;;;;;;21.63;88.88;100217.16;5021001;28;20076;-59
2023/09/05 07:16:22;;;;;;;8.77;3.97;;;;;;;21.52;89.14;100209.88;5010535;28;20102;-59
2023/09/05 07:18:53;;;;;;;6.10;3.77;;;;;;;21.28;89.65;100181.16;5020794;28;20789;-59
2023/09/05 07:21:23;;;;;;;12.27;5.63;;;;;;;21.40;90.65;100215.97;4989818;28;20300;-59
2023/09/05 07:23:56;;;;;;;6.77;3.23;;;;;;;20.99;91.06;100175.00;5000530;28;20054;-59
2023/09/05 07:26:27;;;;;;;7.93;3.57;;;;;;;21.02;92.22;100212.00;4991459;28;20065;-59
2023/09/05 07:28:59;;;;;;;8.80;3.67;;;;;;;20.91;93.30;100209.13;5001233;28;20353;-60
2023/09/05 07:31:31;;;;;;;11.27;3.80;;;;;;;20.82;94.27;100209.72;5010811;28;20063;-58
2023/09/05 07:34:01;;;;;;;14.50;4.30;;;;;;;20.75;95.36;100213.66;5010937;28;20730;-60
2023/09/05 07:36:33;;;;;;;10.73;4.27;;;;;;;20.64;95.93;100199.22;5012353;28;20338;-60
2023/09/05 07:39:04;;;;;;;15.03;3.90;;;;;;;20.04;96.62;100114.25;5013886;28;20088;-58
2023/09/05 07:41:36;;;;;;;15.60;4.00;;;;;;;20.60;97.43;100205.66;5025429;28;20295;-58
2023/09/05 07:44:08;;;;;;;7.00;4.20;;;;;;;20.14;98.04;100131.34;5014708;28;20279;-59
2023/09/05 07:46:39;;;;;;;10.13;6.27;;;;;;;20.49;98.86;100202.72;5024477;28;20319;-60
2023/09/05 07:49:09;;;;;;;33.40;17.53;;;;;;;20.44;99.94;100205.69;5014620;28;20393;-60
2023/09/05 07:51:40;;;;;;;7.90;3.87;;;;;;;20.40;100.00;100208.59;5024982;28;20287;-60
2023/09/05 07:54:14;;;;;;;8.43;3.40;;;;;;;20.33;100.00;100207.25;5015398;28;20280;-59
2023/09/05 07:56:45;;;;;;;8.77;4.13;;;;;;;20.18;100.00;100187.75;5024815;28;20379;-59
2023/09/05 07:59:17;;;;;;;9.43;4.13;;;;;;;20.20;100.00;100197.34;5015051;28;20306;-59
2023/09/05 08:01:48;;;;;;;5.53;4.10;;;;;;;20.17;100.00;100197.50;5023766;28;20318;-58
2023/09/05 08:04:19;;;;;;;7.20;4.23;;;;;;;20.08;100.00;100200.69;5014173;28;20829;-60
2023/09/05 08:06:50;;;;;;;11.23;8.23;;;;;;;19.95;100.00;100197.03;5024378;28;20279;-59
2023/09/05 08:09:20;;;;;;;9.10;3.90;;;;;;;19.97;100.00;100205.75;5014955;28;20611;-59
2023/09/05 08:11:51;;;;;;;7.63;3.73;;;;;;;19.90;100.00;100199.94;5024663;28;20353;-60
2023/09/05 08:14:23;;;;;;;4.87;3.53;;;;;;;19.86;100.00;100210.78;5014646;28;20410;-60
2023/09/05 08:16:54;;;;;;;7.40;3.90;;;;;;;19.79;100.00;100208.50;5023818;28;20752;-59
2023/09/05 08:19:25;;;;;;;7.23;4.30;;;;;;;19.65;100.00;100195.09;5013856;28;20294;-59
2023/09/05 08:21:55;;;;;;;5.77;3.47;;;;;;;19.69;100.00;100204.63;5023906;28;20605;-59
2023/09/05 08:24:27;;;;;;;10.83;4.00;;;;;;;19.66;100.00;100207.41;5005623;28;20294;-59
2023/09/05 08:27:02;;;;;;;10.63;4.03;;;;;;;19.61;100.00;100204.16;5024441;28;20294;-59
2023/09/05 08:29:43;;;;;;;10.73;4.40;;;;;;;19.48;100.00;100181.91;5024295;28;20574;-59
2023/09/05 08:32:13;;;;;;;8.07;4.53;;;;;;;19.53;100.00;100201.06;5026273;28;20280;-60
2023/09/05 08:34:44;;;;;;;8.70;4.37;;;;;;;19.47;100.00;100198.75;5036366;28;20291;-60
2023/09/05 08:37:15;;;;;;;7.97;4.47;;;;;;;19.37;100.00;100204.56;5024888;28;20382;-60
2023/09/05 08:39:45;;;;;;;8.27;4.23;;;;;;;19.32;100.00;100193.34;5024136;28;20641;-60
2023/09/05 08:42:16;;;;;;;8.13;3.60;;;;;;;19.24;100.00;100190.25;5014382;28;20716;-58
2023/09/05 08:44:49;;;;;;;6.13;4.03;;;;;;;19.19;100.00;100186.97;5023852;28;20284;-58
2023/09/05 08:47:20;;;;;;;8.70;4.30;;;;;;;19.20;100.00;100198.47;5014260;28;20287;-60
2023/09/05 08:49:51;;;;;;;9.47;4.17;;;;;;;19.12;100.00;100193.53;5022845;28;20302;-58
2023/09/05 08:52:23;;;;;;;10.10;4.53;;;;;;;18.98;100.00;100172.25;5013823;28;20299;-59
2023/09/05 08:54:53;;;;;;;11.00;4.17;;;;;;;18.94;100.00;100177.69;5023584;28;20361;-58
2023/09/05 08:57:26;;;;;;;9.20;4.13;;;;;;;18.94;100.00;100188.28;5013370;28;20371;-60
2023/09/05 08:59:59;;;;;;;9.57;4.67;;;;;;;18.93;100.00;100197.16;5023748;28;20279;-58
2023/09/05 09:02:34;;;;;;;9.33;4.33;;;;;;;18.81;100.00;100186.34;4993457;28;20593;-59
2023/09/05 09:05:11;;;;;;;7.47;4.10;;;;;;;18.82;100.00;100204.81;4994250;28;20314;-59
2023/09/05 09:07:42;;;;;;;8.97;4.53;;;;;;;18.75;100.00;100182.22;5009555;28;20952;-58
2023/09/05 09:10:23;;;;;;;6.87;4.23;;;;;;;18.39;100.00;100139.94;4992929;28;20767;-59
2023/09/05 09:12:55;;;;;;;10.17;4.57;;;;;;;18.30;100.00;100138.66;5019428;28;20329;-59
2023/09/05 09:15:30;;;;;;;7.47;4.53;;;;;;;18.58;100.00;100192.81;5012482;28;20362;-58
2023/09/05 09:18:01;;;;;;;8.93;5.10;;;;;;;18.56;100.00;100205.25;5013478;28;20280;-59
2023/09/05 09:20:49;;;;;;;14.37;4.67;;;;;;;18.51;100.00;100205.47;5022356;28;20299;-58
2023/09/05 09:23:28;;;;;;;13.97;4.47;;;;;;;18.35;100.00;100184.22;5011918;28;20288;-59
2023/09/05 09:26:00;;;;;;;9.33;4.93;;;;;;;18.52;100.00;100213.34;5017688;28;20317;-59
2023/09/05 09:28:32;;;;;;;8.80;4.60;;;;;;;18.54;100.00;100222.03;5022803;28;20694;-60
2023/09/05 09:31:06;;;;;;;7.53;4.30;;;;;;;18.38;100.00;100199.09;5012916;28;20349;-59
2023/09/05 09:33:41;;;;;;;8.27;4.70;;;;;;;18.25;100.00;100185.63;5022651;28;20290;-60
2023/09/05 09:39:09;;;;;;;7.73;4.17;;;;;;;18.25;100.00;100204.13;4940208;28;20699;-59
2023/09/05 09:41:46;;;;;;;6.23;4.83;;;;;;;18.36;100.00;100233.53;4942937;28;20282;-60
2023/09/05 09:44:28;;;;;;;11.10;4.73;;;;;;;18.31;100.00;100224.97;4934606;28;20446;-60
2023/09/05 09:47:02;;;;;;;8.97;5.37;;;;;;;18.29;100.00;100224.19;4956620;28;20293;-59
2023/09/05 09:49:41;;;;;;;10.73;5.27;;;;;;;18.30;100.00;100229.41;4951430;28;20401;-59
2023/09/05 09:52:17;;;;;;;11.55;4.93;;;;;;;18.28;100.00;100227.78;4931216;28;20270;-61
2023/09/05 09:54:50;;;;;;;9.47;5.10;;;;;;;18.04;100.00;100198.09;4955969;28;20468;-60
2023/09/05 09:57:28;;;;;;;7.93;5.23;;;;;;;18.25;100.00;100235.88;4952061;28;20285;-60
2023/09/05 10:00:18;;;;;;;7.03;5.07;;;;;;;18.25;100.00;100222.66;4951301;28;20340;-59
2023/09/05 10:02:53;;;;;;;10.07;4.80;;;;;;;17.90;100.00;100180.25;4961307;28;20289;-61
2023/09/05 10:05:26;;;;;;;10.67;4.90;;;;;;;18.14;100.00;100243.47;4954173;28;20294;-59
2023/09/05 10:07:59;;;;;;;8.33;5.23;;;;;;;17.98;100.00;100233.63;4964629;28;20752;-59
2023/09/05 10:10:32;;;;;;;8.83;4.67;;;;;;;18.09;100.00;100247.16;4938312;28;20290;-60
2023/09/05 10:13:05;;;;;;;13.40;4.60;;;;;;;18.05;100.00;100253.56;4948329;28;20288;-59
2023/09/05 10:15:38;;;;;;;9.13;4.80;;;;;;;17.97;100.00;100247.78;4969840;28;20295;-59
2023/09/05 10:18:13;;;;;;;8.03;4.47;;;;;;;17.82;100.00;100232.63;5012521;28;20299;-60
2023/09/05 10:20:46;;;;;;;6.20;4.70;;;;;;;17.89;100.00;100244.63;5021794;28;20307;-59
2023/09/05 10:23:19;;;;;;;6.97;4.27;;;;;;;17.88;100.00;100246.41;5011858;28;20303;-59
2023/09/05 10:25:52;;;;;;;8.77;4.43;;;;;;;17.81;100.00;100241.47;5023026;28;20390;-60
2023/09/05 10:28:28;;;;;;;6.80;4.97;;;;;;;17.66;100.00;100219.22;5012050;28;20286;-60
2023/09/05 10:31:12;;;;;;;7.30;4.63;;;;;;;17.75;100.00;100225.91;5017239;28;20350;-60
2023/09/05 10:33:46;;;;;;;8.03;4.60;;;;;;;17.36;100.00;100179.25;5021988;28;20295;-60
2023/09/05 10:36:42;;;;;;;10.03;5.43;;;;;;;17.60;100.00;100238.88;5009824;28;20797;-59
2023/09/05 10:39:25;;;;;;;6.57;5.17;;;;;;;17.31;100.00;100178.59;5007674;28;20617;-58
2023/09/05 10:41:56;;;;;;;7.57;5.10;;;;;;;17.46;100.00;100217.50;5021309;28;20374;-59
2023/09/05 10:44:28;;;;;;;6.50;4.80;;;;;;;17.54;100.00;100239.16;4991970;28;20284;-60
2023/09/05 10:47:26;;;;;;;10.17;5.47;;;;;;;17.46;100.00;100246.56;4996880;28;20307;-60
2023/09/05 10:50:05;;;;;;;18.50;6.83;;;;;;;17.40;100.00;100252.13;5001202;28;20299;-59
2023/09/05 10:52:37;;;;;;;9.60;5.43;;;;;;;17.31;100.00;100247.25;4998422;28;20354;-59
2023/09/05 10:55:44;;;;;;;8.70;5.67;;;;;;;17.38;100.00;100257.47;4991685;28;20280;-59
2023/09/05 10:58:40;;;;;;;7.33;5.00;;;;;;;17.32;100.00;100259.53;5009686;28;20353;-58
2023/09/05 11:01:52;;;;;;;10.37;5.10;;;;;;;17.29;100.00;100259.66;5010308;28;20291;-58
2023/09/05 11:04:30;;;;;;;9.07;5.03;;;;;;;17.19;100.00;100259.22;5010624;28;20331;-60
2023/09/05 11:07:05;;;;;;;9.50;5.77;;;;;;;17.12;100.00;100253.31;5011766;28;20283;-61
2023/09/05 11:09:48;;;;;;;9.10;5.70;;;;;;;17.10;100.00;100252.56;5021350;28;20371;-61
2023/09/05 11:12:20;;;;;;;10.40;6.13;;;;;;;16.86;100.00;100219.31;5011957;28;20286;-59
2023/09/05 11:14:55;;;;;;;11.77;4.93;;;;;;;16.97;100.00;100248.72;5020752;28;20362;-61
2023/09/05 11:17:28;;;;;;;16.60;6.27;;;;;;;16.85;100.00;100233.41;4996937;28;20275;-60
2023/09/05 11:20:00;;;;;;;11.27;5.23;;;;;;;16.80;100.00;100247.66;5014948;28;20294;-60
2023/09/05 11:22:34;;;;;;;13.33;5.57;;;;;;;16.76;100.00;100246.03;5021170;28;20291;-60
2023/09/05 11:25:10;;;;;;;17.00;6.47;;;;;;;16.68;100.00;100226.19;5010810;28;20292;-60
2023/09/05 11:27:41;;;;;;;11.23;6.60;;;;;;;16.80;100.00;100242.41;5021165;28;20279;-58
2023/09/05 11:30:16;;;;;;;13.33;6.43;;;;;;;16.56;100.00;100195.91;5011796;28;20305;-58
2023/09/05 11:32:49;;;;;;;11.97;5.67;;;;;;;16.83;100.00;100235.28;5021661;28;20307;-61
2023/09/05 11:35:21;;;;;;;10.83;6.43;;;;;;;16.72;100.00;100207.50;5011296;28;20945;-60
2023/09/05 11:38:03;;;;;;;8.77;6.20;;;;;;;16.89;100.00;100229.72;5020984;28;20315;-59
2023/09/05 11:40:35;;;;;;;10.37;5.33;;;;;;;16.81;100.00;100212.44;5004076;28;20341;-61
2023/09/05 11:43:08;;;;;;;9.83;5.20;;;;;;;16.87;100.00;100215.72;5011191;28;20276;-58
2023/09/05 11:45:45;;;;;;;8.20;5.23;;;;;;;16.95;100.00;100229.47;5021168;28;21823;-57
2023/09/05 11:48:17;;;;;;;8.87;5.70;;;;;;;16.96;100.00;100217.97;5011237;28;20311;-59